sensor_id;sensor_type;location;lat;lon;timestamp;temperature;humidity
72865;DHT22;61000;48.120;11.548;2024-01-15T00:00:27;0.30;99.90
72865;DHT22;61000;48.120;11.548;2024-01-15T00:02:54;0.30;99.90
72865;DHT22;61000;48.120;11.548;2024-01-15T00:05:21;0.30;99.90
72865;DHT22;61000;48.120;11.548;2024-01-15T00:07:48;0.40;99.90
72865;DHT22;61000;48.120;11.548;2024-01-15T00:10:15;0.40;99.90
72865;DHT22;61000;48.120;11.548;2024-01-15T00:12:42;0.40;99.90
72865;DHT22;61000;48.120;11.548;2024-01-15T00:15:10;0.40;99.90
72865;DHT22;61000;48.120;11.548;2024-01-15T00:17:37;0.50;99.90
72865;DHT22;61000;48.120;11.548;2024-01-15T00:20:05;0.40;99.90
72865;DHT22;61000;48.120;11.548;2024-01-15T00:22:32;0.40;99.90
72865;DHT22;61000;48.120;11.548;2024-01-15T00:25:01;0.50;99.90
72865;DHT22;61000;48.120;11.548;2024-01-15T00:27:28;0.50;99.90
72865;DHT22;61000;48.120;11.548;2024-01-15T00:29:54;0.50;99.90
72865;DHT22;61000;48.120;11.548;2024-01-15T00:32:23;0.50;99.90
72865;DHT22;61000;48.120;11.548;2024-01-15T00:34:50;0.50;99.90
72865;DHT22;61000;48.120;11.548;2024-01-15T00:37:17;0.60;99.90
72865;DHT22;61000;48.120;11.548;2024-01-15T00:39:44;0.50;99.90
72865;DHT22;61000;48.120;11.548;2024-01-15T00:42:11;0.50;99.90
72865;DHT22;61000;48.120;11.548;2024-01-15T00:44:38;0.50;99.90
72865;DHT22;61000;48.120;11.548;2024-01-15T00:47:05;0.50;99.90
72865;DHT22;61000;48.120;11.548;2024-01-15T00:49:33;0.50;99.90
72865;DHT22;61000;48.120;11.548;2024-01-15T00:52:00;0.40;99.90
72865;DHT22;61000;48.120;11.548;2024-01-15T00:54:27;0.50;99.90
72865;DHT22;61000;48.120;11.548;2024-01-15T00:56:54;0.50;99.90
72865;DHT22;61000;48.120;11.548;2024-01-15T00:59:21;0.40;99.90
72865;DHT22;61000;48.120;11.548;2024-01-15T01:01:48;0.40;99.90
72865;DHT22;61000;48.120;11.548;2024-01-15T01:04:15;0.40;99.90
72865;DHT22;61000;48.120;11.548;2024-01-15T01:06:43;0.30;99.90
72865;DHT22;61000;48.120;11.548;2024-01-15T01:09:10;0.30;99.90
72865;DHT22;61000;48.120;11.548;2024-01-15T01:11:37;0.30;99.90
72865;DHT22;61000;48.120;11.548;2024-01-15T01:14:04;0.30;99.90
72865;DHT22;61000;48.120;11.548;2024-01-15T01:16:31;0.20;99.90
72865;DHT22;61000;48.120;11.548;2024-01-15T01:19:04;0.10;99.90
72865;DHT22;61000;48.120;11.548;2024-01-15T01:21:31;0.00;99.90
72865;DHT22;61000;48.120;11.548;2024-01-15T01:23:59;-0.10;99.90
72865;DHT22;61000;48.120;11.548;2024-01-15T01:26:26;-0.20;99.90
72865;DHT22;61000;48.120;11.548;2024-01-15T01:28:53;-0.30;99.90
72865;DHT22;61000;48.120;11.548;2024-01-15T01:31:20;-0.30;99.90
72865;DHT22;61000;48.120;11.548;2024-01-15T01:33:47;-0.40;99.90
72865;DHT22;61000;48.120;11.548;2024-01-15T01:36:14;-0.50;99.90
72865;DHT22;61000;48.120;11.548;2024-01-15T01:38:41;-0.50;99.90
72865;DHT22;61000;48.120;11.548;2024-01-15T01:41:09;-0.70;99.90
72865;DHT22;61000;48.120;11.548;2024-01-15T01:43:36;-0.70;99.90
72865;DHT22;61000;48.120;11.548;2024-01-15T01:46:03;-0.70;99.90
72865;DHT22;61000;48.120;11.548;2024-01-15T01:48:31;-0.80;99.90
72865;DHT22;61000;48.120;11.548;2024-01-15T01:51:01;-0.80;99.90
72865;DHT22;61000;48.120;11.548;2024-01-15T01:53:29;-0.80;99.90
72865;DHT22;61000;48.120;11.548;2024-01-15T01:55:58;-0.90;99.90
72865;DHT22;61000;48.120;11.548;2024-01-15T01:58:27;-0.90;99.90
72865;DHT22;61000;48.120;11.548;2024-01-15T02:00:55;-0.90;99.90
72865;DHT22;61000;48.120;11.548;2024-01-15T02:03:22;-0.90;99.90
72865;DHT22;61000;48.120;11.548;2024-01-15T02:05:49;-1.00;99.90
72865;DHT22;61000;48.120;11.548;2024-01-15T02:08:16;-1.00;99.90
72865;DHT22;61000;48.120;11.548;2024-01-15T02:10:43;-1.00;99.90
72865;DHT22;61000;48.120;11.548;2024-01-15T02:13:10;-1.00;99.90
72865;DHT22;61000;48.120;11.548;2024-01-15T02:15:38;-1.00;99.90
72865;DHT22;61000;48.120;11.548;2024-01-15T02:18:06;-1.00;99.90
72865;DHT22;61000;48.120;11.548;2024-01-15T02:20:33;-1.00;99.90
72865;DHT22;61000;48.120;11.548;2024-01-15T02:23:08;-1.00;99.90
72865;DHT22;61000;48.120;11.548;2024-01-15T02:25:40;-1.00;99.90
72865;DHT22;61000;48.120;11.548;2024-01-15T02:28:08;-1.00;99.90
72865;DHT22;61000;48.120;11.548;2024-01-15T02:30:37;-1.10;99.90
72865;DHT22;61000;48.120;11.548;2024-01-15T02:33:05;-1.10;99.90
72865;DHT22;61000;48.120;11.548;2024-01-15T02:35:32;-1.00;99.90
72865;DHT22;61000;48.120;11.548;2024-01-15T02:37:59;-1.10;99.90
72865;DHT22;61000;48.120;11.548;2024-01-15T02:40:28;-1.10;99.90
72865;DHT22;61000;48.120;11.548;2024-01-15T02:42:55;-1.10;99.90
72865;DHT22;61000;48.120;11.548;2024-01-15T02:45:22;-1.10;99.90
72865;DHT22;61000;48.120;11.548;2024-01-15T02:47:49;-1.10;99.90
72865;DHT22;61000;48.120;11.548;2024-01-15T02:50:16;-1.10;99.90
72865;DHT22;61000;48.120;11.548;2024-01-15T02:52:43;-1.10;99.90
72865;DHT22;61000;48.120;11.548;2024-01-15T02:55:10;-1.10;99.90
72865;DHT22;61000;48.120;11.548;2024-01-15T02:57:39;-1.10;99.90
72865;DHT22;61000;48.120;11.548;2024-01-15T03:00:06;-1.10;99.90
72865;DHT22;61000;48.120;11.548;2024-01-15T03:02:36;-1.10;99.90
72865;DHT22;61000;48.120;11.548;2024-01-15T03:05:05;-1.10;99.90
72865;DHT22;61000;48.120;11.548;2024-01-15T03:07:32;-1.10;99.90
72865;DHT22;61000;48.120;11.548;2024-01-15T03:09:59;-1.10;99.90
72865;DHT22;61000;48.120;11.548;2024-01-15T03:12:26;-1.10;99.90
72865;DHT22;61000;48.120;11.548;2024-01-15T03:14:54;-1.00;99.90
72865;DHT22;61000;48.120;11.548;2024-01-15T03:17:21;-1.10;99.90
72865;DHT22;61000;48.120;11.548;2024-01-15T03:19:48;-1.10;99.90
72865;DHT22;61000;48.120;11.548;2024-01-15T03:22:15;-1.00;99.90
72865;DHT22;61000;48.120;11.548;2024-01-15T03:24:42;-1.10;99.90
72865;DHT22;61000;48.120;11.548;2024-01-15T03:27:09;-1.00;99.90
72865;DHT22;61000;48.120;11.548;2024-01-15T03:29:36;-1.00;99.90
72865;DHT22;61000;48.120;11.548;2024-01-15T03:32:04;-1.00;99.90
72865;DHT22;61000;48.120;11.548;2024-01-15T03:34:31;-1.00;99.90
72865;DHT22;61000;48.120;11.548;2024-01-15T03:36:58;-1.00;99.90
72865;DHT22;61000;48.120;11.548;2024-01-15T03:39:25;-1.00;99.90
72865;DHT22;61000;48.120;11.548;2024-01-15T03:41:52;-1.00;99.90
72865;DHT22;61000;48.120;11.548;2024-01-15T03:44:19;-1.00;99.90
72865;DHT22;61000;48.120;11.548;2024-01-15T03:46:46;-1.00;99.90
72865;DHT22;61000;48.120;11.548;2024-01-15T03:49:14;-1.00;99.90
72865;DHT22;61000;48.120;11.548;2024-01-15T03:51:41;-1.00;99.90
72865;DHT22;61000;48.120;11.548;2024-01-15T03:54:08;-1.00;99.90
72865;DHT22;61000;48.120;11.548;2024-01-15T03:56:35;-1.00;99.90
72865;DHT22;61000;48.120;11.548;2024-01-15T03:59:01;-1.00;99.90
72865;DHT22;61000;48.120;11.548;2024-01-15T04:01:28;-1.00;99.90
72865;DHT22;61000;48.120;11.548;2024-01-15T04:03:55;-1.10;99.90
72865;DHT22;61000;48.120;11.548;2024-01-15T04:06:23;-1.00;99.90
72865;DHT22;61000;48.120;11.548;2024-01-15T04:08:50;-1.00;99.90
72865;DHT22;61000;48.120;11.548;2024-01-15T04:11:17;-1.00;99.90
72865;DHT22;61000;48.120;11.548;2024-01-15T04:13:44;-1.00;99.90
72865;DHT22;61000;48.120;11.548;2024-01-15T04:16:11;-1.00;99.90
72865;DHT22;61000;48.120;11.548;2024-01-15T04:18:38;-1.00;99.90
72865;DHT22;61000;48.120;11.548;2024-01-15T04:21:05;-1.00;99.90
72865;DHT22;61000;48.120;11.548;2024-01-15T04:23:34;-1.00;99.90
72865;DHT22;61000;48.120;11.548;2024-01-15T04:26:01;-1.00;99.90
72865;DHT22;61000;48.120;11.548;2024-01-15T04:28:27;-1.00;99.90
72865;DHT22;61000;48.120;11.548;2024-01-15T04:30:54;-1.00;99.90
72865;DHT22;61000;48.120;11.548;2024-01-15T04:33:22;-1.00;99.90
72865;DHT22;61000;48.120;11.548;2024-01-15T04:35:49;-1.00;99.90
72865;DHT22;61000;48.120;11.548;2024-01-15T04:38:16;-1.00;99.90
72865;DHT22;61000;48.120;11.548;2024-01-15T04:40:44;-1.00;99.90
72865;DHT22;61000;48.120;11.548;2024-01-15T04:43:11;-1.00;99.90
72865;DHT22;61000;48.120;11.548;2024-01-15T04:45:38;-1.00;99.90
72865;DHT22;61000;48.120;11.548;2024-01-15T04:48:05;-0.90;99.90
72865;DHT22;61000;48.120;11.548;2024-01-15T04:50:32;-0.90;99.90
72865;DHT22;61000;48.120;11.548;2024-01-15T04:52:59;-0.90;99.90
72865;DHT22;61000;48.120;11.548;2024-01-15T04:55:26;-1.00;99.90
72865;DHT22;61000;48.120;11.548;2024-01-15T04:57:54;-1.00;99.90
72865;DHT22;61000;48.120;11.548;2024-01-15T05:00:21;-0.90;99.90
72865;DHT22;61000;48.120;11.548;2024-01-15T05:02:48;-1.00;99.90
72865;DHT22;61000;48.120;11.548;2024-01-15T05:05:15;-1.00;99.90
72865;DHT22;61000;48.120;11.548;2024-01-15T05:07:42;-1.00;99.90
72865;DHT22;61000;48.120;11.548;2024-01-15T05:10:09;-0.90;99.90
72865;DHT22;61000;48.120;11.548;2024-01-15T05:12:36;-0.90;99.90
72865;DHT22;61000;48.120;11.548;2024-01-15T05:15:05;-0.90;99.90
72865;DHT22;61000;48.120;11.548;2024-01-15T05:17:32;-0.90;99.90
72865;DHT22;61000;48.120;11.548;2024-01-15T05:19:59;-0.90;99.90
72865;DHT22;61000;48.120;11.548;2024-01-15T05:22:26;-0.90;99.90
72865;DHT22;61000;48.120;11.548;2024-01-15T05:24:52;-0.90;99.90
72865;DHT22;61000;48.120;11.548;2024-01-15T05:27:19;-0.90;99.90
72865;DHT22;61000;48.120;11.548;2024-01-15T05:29:46;-0.90;99.90
72865;DHT22;61000;48.120;11.548;2024-01-15T05:32:15;-0.90;99.90
72865;DHT22;61000;48.120;11.548;2024-01-15T05:34:41;-0.90;99.90
72865;DHT22;61000;48.120;11.548;2024-01-15T05:37:08;-0.90;99.90
72865;DHT22;61000;48.120;11.548;2024-01-15T05:39:35;-0.90;99.90
72865;DHT22;61000;48.120;11.548;2024-01-15T05:42:02;-0.90;99.90
72865;DHT22;61000;48.120;11.548;2024-01-15T05:44:29;-0.90;99.90
72865;DHT22;61000;48.120;11.548;2024-01-15T05:46:56;-0.90;99.90
72865;DHT22;61000;48.120;11.548;2024-01-15T05:49:25;-0.90;99.90
72865;DHT22;61000;48.120;11.548;2024-01-15T05:51:51;-0.90;99.90
72865;DHT22;61000;48.120;11.548;2024-01-15T05:54:18;-0.90;99.90
72865;DHT22;61000;48.120;11.548;2024-01-15T05:56:46;-0.90;99.90
72865;DHT22;61000;48.120;11.548;2024-01-15T05:59:13;-1.00;99.90
72865;DHT22;61000;48.120;11.548;2024-01-15T06:01:40;-1.00;99.90
72865;DHT22;61000;48.120;11.548;2024-01-15T06:04:07;-1.00;99.90
72865;DHT22;61000;48.120;11.548;2024-01-15T06:06:35;-1.00;99.90
72865;DHT22;61000;48.120;11.548;2024-01-15T06:09:02;-1.00;99.90
72865;DHT22;61000;48.120;11.548;2024-01-15T06:11:31;-1.00;99.90
72865;DHT22;61000;48.120;11.548;2024-01-15T06:13:58;-1.00;99.90
72865;DHT22;61000;48.120;11.548;2024-01-15T06:16:26;-1.00;99.90
72865;DHT22;61000;48.120;11.548;2024-01-15T06:18:53;-1.00;99.90
72865;DHT22;61000;48.120;11.548;2024-01-15T06:21:20;-1.00;99.90
72865;DHT22;61000;48.120;11.548;2024-01-15T06:23:48;-1.00;99.90
72865;DHT22;61000;48.120;11.548;2024-01-15T06:26:15;-1.00;99.90
72865;DHT22;61000;48.120;11.548;2024-01-15T06:28:42;-1.00;99.90
72865;DHT22;61000;48.120;11.548;2024-01-15T06:31:09;-1.00;99.90
72865;DHT22;61000;48.120;11.548;2024-01-15T06:33:36;-1.00;99.90
72865;DHT22;61000;48.120;11.548;2024-01-15T06:36:04;-1.00;99.90
72865;DHT22;61000;48.120;11.548;2024-01-15T06:38:31;-1.00;99.90
72865;DHT22;61000;48.120;11.548;2024-01-15T06:41:00;-1.00;99.90
72865;DHT22;61000;48.120;11.548;2024-01-15T06:43:26;-1.00;99.90
72865;DHT22;61000;48.120;11.548;2024-01-15T06:45:53;-1.00;99.90
72865;DHT22;61000;48.120;11.548;2024-01-15T06:48:20;-1.00;99.90
72865;DHT22;61000;48.120;11.548;2024-01-15T06:50:47;-1.00;99.90
72865;DHT22;61000;48.120;11.548;2024-01-15T06:53:14;-1.00;99.90
72865;DHT22;61000;48.120;11.548;2024-01-15T06:55:40;-1.00;99.90
72865;DHT22;61000;48.120;11.548;2024-01-15T06:58:08;-1.00;99.90
72865;DHT22;61000;48.120;11.548;2024-01-15T07:00:35;-1.00;99.90
72865;DHT22;61000;48.120;11.548;2024-01-15T07:03:03;-1.00;99.90
72865;DHT22;61000;48.120;11.548;2024-01-15T07:05:30;-1.00;99.90
72865;DHT22;61000;48.120;11.548;2024-01-15T07:07:57;-1.00;99.90
72865;DHT22;61000;48.120;11.548;2024-01-15T07:10:24;-1.00;99.90
72865;DHT22;61000;48.120;11.548;2024-01-15T07:12:51;-1.00;99.90
72865;DHT22;61000;48.120;11.548;2024-01-15T07:15:20;-0.90;99.90
72865;DHT22;61000;48.120;11.548;2024-01-15T07:17:47;-0.90;99.90
72865;DHT22;61000;48.120;11.548;2024-01-15T07:20:14;-0.90;99.90
72865;DHT22;61000;48.120;11.548;2024-01-15T07:22:41;-0.90;99.90
72865;DHT22;61000;48.120;11.548;2024-01-15T07:25:08;-0.90;99.90
72865;DHT22;61000;48.120;11.548;2024-01-15T07:27:35;-0.80;99.90
72865;DHT22;61000;48.120;11.548;2024-01-15T07:30:02;-0.90;99.90
72865;DHT22;61000;48.120;11.548;2024-01-15T07:32:32;-0.80;99.90
72865;DHT22;61000;48.120;11.548;2024-01-15T07:34:59;-0.90;99.90
72865;DHT22;61000;48.120;11.548;2024-01-15T07:37:26;-0.80;99.90
72865;DHT22;61000;48.120;11.548;2024-01-15T07:39:55;-0.80;99.90
72865;DHT22;61000;48.120;11.548;2024-01-15T07:42:22;-0.80;99.90
72865;DHT22;61000;48.120;11.548;2024-01-15T07:44:49;-0.80;99.90
72865;DHT22;61000;48.120;11.548;2024-01-15T07:47:17;-0.70;99.90
72865;DHT22;61000;48.120;11.548;2024-01-15T07:49:45;-0.80;99.90
72865;DHT22;61000;48.120;11.548;2024-01-15T07:52:12;-0.70;99.90
72865;DHT22;61000;48.120;11.548;2024-01-15T07:54:39;-0.70;99.90
72865;DHT22;61000;48.120;11.548;2024-01-15T07:57:06;-0.70;99.90
72865;DHT22;61000;48.120;11.548;2024-01-15T07:59:34;-0.70;99.90
72865;DHT22;61000;48.120;11.548;2024-01-15T08:02:01;-0.70;99.90
72865;DHT22;61000;48.120;11.548;2024-01-15T08:04:28;-0.60;99.90
72865;DHT22;61000;48.120;11.548;2024-01-15T08:06:57;-0.60;99.90
72865;DHT22;61000;48.120;11.548;2024-01-15T08:09:24;-0.60;99.90
72865;DHT22;61000;48.120;11.548;2024-01-15T08:11:51;-0.60;99.90
72865;DHT22;61000;48.120;11.548;2024-01-15T08:14:18;-0.50;99.90
72865;DHT22;61000;48.120;11.548;2024-01-15T08:16:45;-0.50;99.90
72865;DHT22;61000;48.120;11.548;2024-01-15T08:19:12;-0.50;99.90
72865;DHT22;61000;48.120;11.548;2024-01-15T08:21:39;-0.50;99.90
72865;DHT22;61000;48.120;11.548;2024-01-15T08:24:08;-0.50;99.90
72865;DHT22;61000;48.120;11.548;2024-01-15T08:26:35;-0.60;99.90
72865;DHT22;61000;48.120;11.548;2024-01-15T08:29:02;-0.60;99.90
72865;DHT22;61000;48.120;11.548;2024-01-15T08:31:29;-0.50;99.90
72865;DHT22;61000;48.120;11.548;2024-01-15T08:33:56;-0.50;99.90
72865;DHT22;61000;48.120;11.548;2024-01-15T08:36:23;-0.50;99.90
72865;DHT22;61000;48.120;11.548;2024-01-15T08:38:50;-0.50;99.90
72865;DHT22;61000;48.120;11.548;2024-01-15T08:41:19;-0.50;99.90
72865;DHT22;61000;48.120;11.548;2024-01-15T08:43:46;-0.40;99.90
72865;DHT22;61000;48.120;11.548;2024-01-15T08:46:12;-0.40;99.90
72865;DHT22;61000;48.120;11.548;2024-01-15T08:48:39;-0.40;99.90
72865;DHT22;61000;48.120;11.548;2024-01-15T08:51:06;-0.40;99.90
72865;DHT22;61000;48.120;11.548;2024-01-15T08:53:33;-0.40;99.90
72865;DHT22;61000;48.120;11.548;2024-01-15T08:56:00;-0.40;99.90
72865;DHT22;61000;48.120;11.548;2024-01-15T08:58:28;-0.40;99.90
72865;DHT22;61000;48.120;11.548;2024-01-15T09:00:55;-0.40;99.90
72865;DHT22;61000;48.120;11.548;2024-01-15T09:03:22;-0.40;99.90
72865;DHT22;61000;48.120;11.548;2024-01-15T09:05:49;-0.40;99.90
72865;DHT22;61000;48.120;11.548;2024-01-15T09:08:16;-0.40;99.90
72865;DHT22;61000;48.120;11.548;2024-01-15T09:10:43;-0.30;99.90
72865;DHT22;61000;48.120;11.548;2024-01-15T09:13:11;-0.30;99.90
72865;DHT22;61000;48.120;11.548;2024-01-15T09:15:39;-0.30;99.90
72865;DHT22;61000;48.120;11.548;2024-01-15T09:18:06;-0.30;99.90
72865;DHT22;61000;48.120;11.548;2024-01-15T09:20:33;-0.20;99.90
72865;DHT22;61000;48.120;11.548;2024-01-15T09:23:00;-0.20;99.90
72865;DHT22;61000;48.120;11.548;2024-01-15T09:25:27;-0.20;99.90
72865;DHT22;61000;48.120;11.548;2024-01-15T09:27:54;-0.20;99.90
72865;DHT22;61000;48.120;11.548;2024-01-15T09:30:21;-0.10;99.90
72865;DHT22;61000;48.120;11.548;2024-01-15T09:32:49;-0.10;99.90
72865;DHT22;61000;48.120;11.548;2024-01-15T09:35:16;-0.10;99.90
72865;DHT22;61000;48.120;11.548;2024-01-15T09:37:43;-0.10;99.90
72865;DHT22;61000;48.120;11.548;2024-01-15T09:40:13;-0.10;99.90
72865;DHT22;61000;48.120;11.548;2024-01-15T09:42:40;0.00;99.90
72865;DHT22;61000;48.120;11.548;2024-01-15T09:45:08;0.00;99.90
72865;DHT22;61000;48.120;11.548;2024-01-15T09:47:36;0.00;99.90
72865;DHT22;61000;48.120;11.548;2024-01-15T09:50:06;0.00;99.90
72865;DHT22;61000;48.120;11.548;2024-01-15T09:52:34;0.10;99.90
72865;DHT22;61000;48.120;11.548;2024-01-15T09:55:03;0.10;99.90
72865;DHT22;61000;48.120;11.548;2024-01-15T09:57:31;0.10;99.90
72865;DHT22;61000;48.120;11.548;2024-01-15T09:59:59;0.20;99.90
72865;DHT22;61000;48.120;11.548;2024-01-15T10:02:31;0.20;99.90
72865;DHT22;61000;48.120;11.548;2024-01-15T10:04:58;0.30;99.90
72865;DHT22;61000;48.120;11.548;2024-01-15T10:07:26;0.20;99.90
72865;DHT22;61000;48.120;11.548;2024-01-15T10:09:54;0.30;99.90
72865;DHT22;61000;48.120;11.548;2024-01-15T10:12:22;0.30;99.90
72865;DHT22;61000;48.120;11.548;2024-01-15T10:14:50;0.30;99.90
72865;DHT22;61000;48.120;11.548;2024-01-15T10:17:17;0.40;99.90
72865;DHT22;61000;48.120;11.548;2024-01-15T10:19:45;0.30;99.90
72865;DHT22;61000;48.120;11.548;2024-01-15T10:22:13;0.40;99.90
72865;DHT22;61000;48.120;11.548;2024-01-15T10:24:42;0.40;99.90
72865;DHT22;61000;48.120;11.548;2024-01-15T10:27:09;0.40;99.90
72865;DHT22;61000;48.120;11.548;2024-01-15T10:29:37;0.40;99.90
72865;DHT22;61000;48.120;11.548;2024-01-15T10:32:06;0.40;99.90
72865;DHT22;61000;48.120;11.548;2024-01-15T10:34:36;0.40;99.90
72865;DHT22;61000;48.120;11.548;2024-01-15T10:37:04;0.40;99.90
72865;DHT22;61000;48.120;11.548;2024-01-15T10:39:31;0.40;99.90
72865;DHT22;61000;48.120;11.548;2024-01-15T10:41:59;0.40;99.90
72865;DHT22;61000;48.120;11.548;2024-01-15T10:44:27;0.40;99.90
72865;DHT22;61000;48.120;11.548;2024-01-15T10:46:55;0.40;99.90
72865;DHT22;61000;48.120;11.548;2024-01-15T10:49:23;0.50;99.90
72865;DHT22;61000;48.120;11.548;2024-01-15T10:51:52;0.50;99.90
72865;DHT22;61000;48.120;11.548;2024-01-15T10:54:19;0.50;99.90
72865;DHT22;61000;48.120;11.548;2024-01-15T10:56:49;0.50;99.90
72865;DHT22;61000;48.120;11.548;2024-01-15T10:59:19;0.50;99.90
72865;DHT22;61000;48.120;11.548;2024-01-15T11:01:47;0.50;99.90
72865;DHT22;61000;48.120;11.548;2024-01-15T11:04:15;0.60;99.90
72865;DHT22;61000;48.120;11.548;2024-01-15T11:06:44;0.60;99.90
72865;DHT22;61000;48.120;11.548;2024-01-15T11:09:12;0.60;99.90
72865;DHT22;61000;48.120;11.548;2024-01-15T11:11:41;0.70;99.90
72865;DHT22;61000;48.120;11.548;2024-01-15T11:14:10;0.70;99.90
72865;DHT22;61000;48.120;11.548;2024-01-15T11:16:57;0.80;99.90
72865;DHT22;61000;48.120;11.548;2024-01-15T11:19:25;0.80;99.90
72865;DHT22;61000;48.120;11.548;2024-01-15T11:21:52;0.80;99.90
72865;DHT22;61000;48.120;11.548;2024-01-15T11:24:39;0.80;99.90
72865;DHT22;61000;48.120;11.548;2024-01-15T11:27:09;0.90;99.90
72865;DHT22;61000;48.120;11.548;2024-01-15T11:29:37;0.90;99.90
72865;DHT22;61000;48.120;11.548;2024-01-15T11:32:06;0.90;99.90
72865;DHT22;61000;48.120;11.548;2024-01-15T11:34:53;0.80;99.90
72865;DHT22;61000;48.120;11.548;2024-01-15T11:37:20;0.80;99.90
72865;DHT22;61000;48.120;11.548;2024-01-15T11:39:51;0.80;99.90
72865;DHT22;61000;48.120;11.548;2024-01-15T11:42:20;0.80;99.90
72865;DHT22;61000;48.120;11.548;2024-01-15T11:44:48;0.80;99.90
72865;DHT22;61000;48.120;11.548;2024-01-15T11:50:03;0.70;99.90
72865;DHT22;61000;48.120;11.548;2024-01-15T11:52:35;0.70;99.90
72865;DHT22;61000;48.120;11.548;2024-01-15T11:55:11;0.60;99.90
72865;DHT22;61000;48.120;11.548;2024-01-15T11:57:45;0.60;99.90
72865;DHT22;61000;48.120;11.548;2024-01-15T12:00:13;0.60;99.90
72865;DHT22;61000;48.120;11.548;2024-01-15T12:02:43;0.50;99.90
72865;DHT22;61000;48.120;11.548;2024-01-15T12:05:10;0.50;99.90
72865;DHT22;61000;48.120;11.548;2024-01-15T12:07:39;0.60;99.90
72865;DHT22;61000;48.120;11.548;2024-01-15T12:10:09;0.50;99.90
72865;DHT22;61000;48.120;11.548;2024-01-15T12:12:57;0.50;99.90
72865;DHT22;61000;48.120;11.548;2024-01-15T12:15:24;0.50;99.90
72865;DHT22;61000;48.120;11.548;2024-01-15T12:17:54;0.50;99.90
72865;DHT22;61000;48.120;11.548;2024-01-15T12:20:21;0.50;99.90
72865;DHT22;61000;48.120;11.548;2024-01-15T12:22:48;0.60;99.90
72865;DHT22;61000;48.120;11.548;2024-01-15T12:25:15;0.50;99.90
72865;DHT22;61000;48.120;11.548;2024-01-15T12:27:42;0.60;99.90
72865;DHT22;61000;48.120;11.548;2024-01-15T12:30:11;0.60;99.90
72865;DHT22;61000;48.120;11.548;2024-01-15T12:32:39;0.70;99.90
72865;DHT22;61000;48.120;11.548;2024-01-15T12:35:08;0.70;99.90
72865;DHT22;61000;48.120;11.548;2024-01-15T12:37:35;0.70;99.90
72865;DHT22;61000;48.120;11.548;2024-01-15T12:40:03;0.70;99.90
72865;DHT22;61000;48.120;11.548;2024-01-15T12:42:30;0.70;99.90
72865;DHT22;61000;48.120;11.548;2024-01-15T12:44:57;0.80;99.90
72865;DHT22;61000;48.120;11.548;2024-01-15T12:47:24;0.80;99.90
72865;DHT22;61000;48.120;11.548;2024-01-15T12:49:52;0.80;99.90
72865;DHT22;61000;48.120;11.548;2024-01-15T12:52:21;0.80;99.90
72865;DHT22;61000;48.120;11.548;2024-01-15T12:54:48;0.80;99.90
72865;DHT22;61000;48.120;11.548;2024-01-15T12:57:15;0.80;99.90
72865;DHT22;61000;48.120;11.548;2024-01-15T12:59:43;0.90;99.90
72865;DHT22;61000;48.120;11.548;2024-01-15T13:02:11;1.10;99.90
72865;DHT22;61000;48.120;11.548;2024-01-15T13:04:38;1.40;99.90
72865;DHT22;61000;48.120;11.548;2024-01-15T13:07:05;1.60;99.90
72865;DHT22;61000;48.120;11.548;2024-01-15T13:09:34;1.80;99.90
72865;DHT22;61000;48.120;11.548;2024-01-15T13:12:01;2.10;99.90
72865;DHT22;61000;48.120;11.548;2024-01-15T13:14:29;2.20;99.90
72865;DHT22;61000;48.120;11.548;2024-01-15T13:16:56;2.40;99.90
72865;DHT22;61000;48.120;11.548;2024-01-15T13:19:24;2.30;99.90
72865;DHT22;61000;48.120;11.548;2024-01-15T13:21:51;2.20;99.90
72865;DHT22;61000;48.120;11.548;2024-01-15T13:24:19;2.10;99.90
72865;DHT22;61000;48.120;11.548;2024-01-15T13:26:47;2.10;99.90
72865;DHT22;61000;48.120;11.548;2024-01-15T13:29:14;2.10;99.90
72865;DHT22;61000;48.120;11.548;2024-01-15T13:31:41;2.00;99.90
72865;DHT22;61000;48.120;11.548;2024-01-15T13:34:08;1.80;99.90
72865;DHT22;61000;48.120;11.548;2024-01-15T13:36:35;1.80;99.90
72865;DHT22;61000;48.120;11.548;2024-01-15T13:39:04;1.70;99.90
72865;DHT22;61000;48.120;11.548;2024-01-15T13:41:34;1.70;99.90
72865;DHT22;61000;48.120;11.548;2024-01-15T13:44:03;1.70;99.90
72865;DHT22;61000;48.120;11.548;2024-01-15T13:46:29;1.60;99.90
72865;DHT22;61000;48.120;11.548;2024-01-15T13:48:56;1.70;99.90
72865;DHT22;61000;48.120;11.548;2024-01-15T13:51:23;1.60;99.90
72865;DHT22;61000;48.120;11.548;2024-01-15T13:53:50;1.60;99.90
72865;DHT22;61000;48.120;11.548;2024-01-15T13:56:20;1.50;99.90
72865;DHT22;61000;48.120;11.548;2024-01-15T13:58:47;1.60;99.90
72865;DHT22;61000;48.120;11.548;2024-01-15T14:01:16;1.60;99.90
72865;DHT22;61000;48.120;11.548;2024-01-15T14:03:44;1.60;99.90
72865;DHT22;61000;48.120;11.548;2024-01-15T14:06:11;1.50;99.90
72865;DHT22;61000;48.120;11.548;2024-01-15T14:08:37;1.50;99.90
72865;DHT22;61000;48.120;11.548;2024-01-15T14:11:04;1.50;99.90
72865;DHT22;61000;48.120;11.548;2024-01-15T14:13:32;1.50;99.90
72865;DHT22;61000;48.120;11.548;2024-01-15T14:16:00;1.50;99.90
72865;DHT22;61000;48.120;11.548;2024-01-15T14:18:28;1.40;99.90
72865;DHT22;61000;48.120;11.548;2024-01-15T14:20:55;1.40;99.90
72865;DHT22;61000;48.120;11.548;2024-01-15T14:23:22;1.30;99.90
72865;DHT22;61000;48.120;11.548;2024-01-15T14:25:49;1.30;99.90
72865;DHT22;61000;48.120;11.548;2024-01-15T14:28:16;1.30;99.90
72865;DHT22;61000;48.120;11.548;2024-01-15T14:30:43;1.20;99.90
72865;DHT22;61000;48.120;11.548;2024-01-15T14:33:09;1.20;99.90
72865;DHT22;61000;48.120;11.548;2024-01-15T14:35:38;1.20;99.90
72865;DHT22;61000;48.120;11.548;2024-01-15T14:38:05;1.20;99.90
72865;DHT22;61000;48.120;11.548;2024-01-15T14:40:34;1.10;99.90
72865;DHT22;61000;48.120;11.548;2024-01-15T14:43:00;1.10;99.90
72865;DHT22;61000;48.120;11.548;2024-01-15T14:45:27;1.00;99.90
72865;DHT22;61000;48.120;11.548;2024-01-15T14:47:55;0.90;99.90
72865;DHT22;61000;48.120;11.548;2024-01-15T14:50:24;0.90;99.90
72865;DHT22;61000;48.120;11.548;2024-01-15T14:52:52;0.90;99.90
72865;DHT22;61000;48.120;11.548;2024-01-15T14:55:19;0.90;99.90
72865;DHT22;61000;48.120;11.548;2024-01-15T14:57:49;0.90;99.90
72865;DHT22;61000;48.120;11.548;2024-01-15T15:00:16;0.80;99.90
72865;DHT22;61000;48.120;11.548;2024-01-15T15:02:43;0.80;99.90
72865;DHT22;61000;48.120;11.548;2024-01-15T15:05:10;0.80;99.90
72865;DHT22;61000;48.120;11.548;2024-01-15T15:07:39;0.80;99.90
72865;DHT22;61000;48.120;11.548;2024-01-15T15:10:08;0.80;99.90
72865;DHT22;61000;48.120;11.548;2024-01-15T15:12:36;0.80;99.90
72865;DHT22;61000;48.120;11.548;2024-01-15T15:15:04;0.80;99.90
72865;DHT22;61000;48.120;11.548;2024-01-15T15:17:32;0.80;99.90
72865;DHT22;61000;48.120;11.548;2024-01-15T15:20:02;0.80;99.90
72865;DHT22;61000;48.120;11.548;2024-01-15T15:22:29;0.80;99.90
72865;DHT22;61000;48.120;11.548;2024-01-15T15:24:56;0.80;99.90
72865;DHT22;61000;48.120;11.548;2024-01-15T15:27:24;0.80;99.90